Airfield :
LOGIN :

Register | Disclaimer

   EN    FR    IT 

 










Legend :    VFR   Marginal VFR   IFR   Intensive IFR   Very Intensive IFR
Visi :
Ceiling :
>= 8 km
>= 3000ft
5 to 8 km
1000 to 3000 ft
1500m to 5 km
500 to 1000 ft
800 to 1500m
200 to 500 ft
< 800m
< 200 ft
Symbols :   Thunderstorms  Fog  Heavy snow  Heavy precipitations  Wind > 20 kt
SIGMETs :     Misc.  Thunderstorms  Icing  Turbulence  Mountain Waves  Volcanic Ashes






- Airport Elevation : 527 ft
- IATA code : DBV


LDDU - Dubrovnik

CURRENT METAR :
  • 281130Z 31007KT 260V360 9999 FEW050 13/00 Q1017 NOSIG

EXPIRED METARs :
  • 281100Z VRB02KT 9999 FEW050 14/M00 Q1017 NOSIG
  • 281030Z 28003KT 200V320 9999 FEW050 12/M01 Q1017 NOSIG
  • 281000Z 02004KT 330V070 9999 FEW050 12/M00 Q1018 NOSIG
  • 280930Z 02006KT 300V090 9999 FEW050 12/M01 Q1018 NOSIG
  • 280900Z 02007KT 300V080 CAVOK 11/M01 Q1018 NOSIG

TAF TAF LDDU
Valid from the 28 at 12:00 until the 29 at 12:00 UTC


281125Z 2812/2912 29006KT 9999 FEW040 TX13/2812Z TN07/2823Z
BECMG 2814/2816 08007KT
TEMPO 2820/2909 02010KT



MET'MAP, your aeronautical weather chart ! - Copyright ORBIFLY December 2007 - Disclaimer

ORBIFLY MET'MAP TEAM :

Programming & Development : Alexandra Zaïnal
Original concept : Baudouin d'Aumeries
Technical & hardware support : Manuel Goepfert
Assistance : Marc-Olivier Méhu




SOURCES & CREDITS :

   NOAA